sensor_id;sensor_type;location;lat;lon;timestamp;temperature;humidity
20066;DHT22;10193;48.884;9.182;2023-09-07T00:02:14;21.10;54.70
20066;DHT22;10193;48.884;9.182;2023-09-07T00:04:41;21.00;54.50
20066;DHT22;10193;48.884;9.182;2023-09-07T00:07:12;20.90;54.50
20066;DHT22;10193;48.884;9.182;2023-09-07T00:09:39;20.80;54.70
20066;DHT22;10193;48.884;9.182;2023-09-07T00:12:06;20.80;54.80
20066;DHT22;10193;48.884;9.182;2023-09-07T00:14:33;20.70;55.00
20066;DHT22;10193;48.884;9.182;2023-09-07T00:17:02;20.70;55.20
20066;DHT22;10193;48.884;9.182;2023-09-07T00:19:30;20.60;55.40
20066;DHT22;10193;48.884;9.182;2023-09-07T00:21:59;20.60;55.60
20066;DHT22;10193;48.884;9.182;2023-09-07T00:24:30;20.50;55.60
20066;DHT22;10193;48.884;9.182;2023-09-07T00:26:56;20.50;56.00
20066;DHT22;10193;48.884;9.182;2023-09-07T00:29:23;20.40;55.80
20066;DHT22;10193;48.884;9.182;2023-09-07T00:31:50;20.40;56.00
20066;DHT22;10193;48.884;9.182;2023-09-07T00:34:35;20.40;56.20
20066;DHT22;10193;48.884;9.182;2023-09-07T00:37:02;20.30;57.10
20066;DHT22;10193;48.884;9.182;2023-09-07T00:39:30;20.30;56.30
20066;DHT22;10193;48.884;9.182;2023-09-07T00:41:57;20.20;56.40
20066;DHT22;10193;48.884;9.182;2023-09-07T00:44:24;20.30;56.50
20066;DHT22;10193;48.884;9.182;2023-09-07T00:46:51;20.30;56.70
20066;DHT22;10193;48.884;9.182;2023-09-07T00:49:17;20.20;56.70
20066;DHT22;10193;48.884;9.182;2023-09-07T00:51:44;20.10;56.80
20066;DHT22;10193;48.884;9.182;2023-09-07T00:54:11;20.10;56.90
20066;DHT22;10193;48.884;9.182;2023-09-07T00:56:40;20.10;57.00
20066;DHT22;10193;48.884;9.182;2023-09-07T00:59:08;20.00;57.10
20066;DHT22;10193;48.884;9.182;2023-09-07T01:01:35;20.00;57.10
20066;DHT22;10193;48.884;9.182;2023-09-07T01:04:02;20.00;57.20
20066;DHT22;10193;48.884;9.182;2023-09-07T01:06:47;20.00;57.30
20066;DHT22;10193;48.884;9.182;2023-09-07T01:09:19;19.90;58.00
20066;DHT22;10193;48.884;9.182;2023-09-07T01:11:47;19.90;57.40
20066;DHT22;10193;48.884;9.182;2023-09-07T01:14:30;19.90;57.40
20066;DHT22;10193;48.884;9.182;2023-09-07T01:16:57;19.90;58.00
20066;DHT22;10193;48.884;9.182;2023-09-07T01:19:24;19.90;57.40
20066;DHT22;10193;48.884;9.182;2023-09-07T01:22:11;19.90;58.20
20066;DHT22;10193;48.884;9.182;2023-09-07T01:24:40;19.80;58.40
20066;DHT22;10193;48.884;9.182;2023-09-07T01:27:11;19.90;58.40
20066;DHT22;10193;48.884;9.182;2023-09-07T01:29:39;19.80;57.90
20066;DHT22;10193;48.884;9.182;2023-09-07T01:32:06;19.80;57.80
20066;DHT22;10193;48.884;9.182;2023-09-07T01:37:59;19.70;58.70
20066;DHT22;10193;48.884;9.182;2023-09-07T01:40:47;19.70;57.80
20066;DHT22;10193;48.884;9.182;2023-09-07T01:43:14;19.50;58.70
20066;DHT22;10193;48.884;9.182;2023-09-07T01:45:41;19.60;58.00
20066;DHT22;10193;48.884;9.182;2023-09-07T01:48:14;19.50;58.10
20066;DHT22;10193;48.884;9.182;2023-09-07T01:50:41;19.40;58.50
20066;DHT22;10193;48.884;9.182;2023-09-07T01:53:09;19.40;58.30
20066;DHT22;10193;48.884;9.182;2023-09-07T01:55:36;19.40;58.50
20066;DHT22;10193;48.884;9.182;2023-09-07T01:58:03;19.30;58.50
20066;DHT22;10193;48.884;9.182;2023-09-07T02:00:40;19.30;58.60
20066;DHT22;10193;48.884;9.182;2023-09-07T02:03:06;19.20;59.10
20066;DHT22;10193;48.884;9.182;2023-09-07T02:05:33;19.20;58.70
20066;DHT22;10193;48.884;9.182;2023-09-07T02:08:09;19.20;58.80
20066;DHT22;10193;48.884;9.182;2023-09-07T02:10:35;19.10;59.20
20066;DHT22;10193;48.884;9.182;2023-09-07T02:13:02;19.10;59.00
20066;DHT22;10193;48.884;9.182;2023-09-07T02:15:29;19.10;58.90
20066;DHT22;10193;48.884;9.182;2023-09-07T02:17:56;19.00;59.00
20066;DHT22;10193;48.884;9.182;2023-09-07T02:20:24;19.00;59.10
20066;DHT22;10193;48.884;9.182;2023-09-07T02:22:51;19.00;59.20
20066;DHT22;10193;48.884;9.182;2023-09-07T02:25:19;18.90;59.20
20066;DHT22;10193;48.884;9.182;2023-09-07T02:27:56;18.90;59.40
20066;DHT22;10193;48.884;9.182;2023-09-07T02:30:23;18.80;59.80
20066;DHT22;10193;48.884;9.182;2023-09-07T02:32:50;18.80;59.20
20066;DHT22;10193;48.884;9.182;2023-09-07T02:35:19;18.80;59.40
20066;DHT22;10193;48.884;9.182;2023-09-07T02:37:45;18.80;59.50
20066;DHT22;10193;48.884;9.182;2023-09-07T02:40:13;18.80;59.40
20066;DHT22;10193;48.884;9.182;2023-09-07T02:42:42;18.70;59.60
20066;DHT22;10193;48.884;9.182;2023-09-07T02:45:10;18.70;59.60
20066;DHT22;10193;48.884;9.182;2023-09-07T02:47:52;18.70;59.80
20066;DHT22;10193;48.884;9.182;2023-09-07T02:50:18;18.60;60.30
20066;DHT22;10193;48.884;9.182;2023-09-07T02:52:47;18.60;59.80
20066;DHT22;10193;48.884;9.182;2023-09-07T02:55:14;18.50;59.80
20066;DHT22;10193;48.884;9.182;2023-09-07T02:57:49;18.50;59.90
20066;DHT22;10193;48.884;9.182;2023-09-07T03:00:16;18.40;60.50
20066;DHT22;10193;48.884;9.182;2023-09-07T03:02:43;18.40;60.00
20066;DHT22;10193;48.884;9.182;2023-09-07T03:05:19;18.40;60.10
20066;DHT22;10193;48.884;9.182;2023-09-07T03:07:46;18.30;60.60
20066;DHT22;10193;48.884;9.182;2023-09-07T03:10:13;18.40;60.40
20066;DHT22;10193;48.884;9.182;2023-09-07T03:12:46;18.30;60.30
20066;DHT22;10193;48.884;9.182;2023-09-07T03:15:15;18.30;60.90
20066;DHT22;10193;48.884;9.182;2023-09-07T03:17:43;18.30;60.70
20066;DHT22;10193;48.884;9.182;2023-09-07T03:20:10;18.30;60.70
20066;DHT22;10193;48.884;9.182;2023-09-07T03:22:40;18.20;60.70
20066;DHT22;10193;48.884;9.182;2023-09-07T03:25:10;18.20;61.00
20066;DHT22;10193;48.884;9.182;2023-09-07T03:27:36;18.20;61.10
20066;DHT22;10193;48.884;9.182;2023-09-07T03:30:04;18.20;61.00
20066;DHT22;10193;48.884;9.182;2023-09-07T03:32:50;18.20;61.10
20066;DHT22;10193;48.884;9.182;2023-09-07T03:35:17;18.10;62.00
20066;DHT22;10193;48.884;9.182;2023-09-07T03:37:43;18.10;61.00
20066;DHT22;10193;48.884;9.182;2023-09-07T03:40:19;18.10;61.10
20066;DHT22;10193;48.884;9.182;2023-09-07T03:42:46;18.00;61.60
20066;DHT22;10193;48.884;9.182;2023-09-07T03:45:13;18.00;61.20
20066;DHT22;10193;48.884;9.182;2023-09-07T03:47:46;18.00;61.30
20066;DHT22;10193;48.884;9.182;2023-09-07T03:50:14;18.00;61.80
20066;DHT22;10193;48.884;9.182;2023-09-07T03:52:44;18.00;61.50
20066;DHT22;10193;48.884;9.182;2023-09-07T03:55:11;17.90;61.70
20066;DHT22;10193;48.884;9.182;2023-09-07T03:57:37;17.90;61.80
20066;DHT22;10193;48.884;9.182;2023-09-07T04:03:10;17.90;63.00
20066;DHT22;10193;48.884;9.182;2023-09-07T04:05:38;17.90;61.90
20066;DHT22;10193;48.884;9.182;2023-09-07T04:08:06;17.90;62.10
20066;DHT22;10193;48.884;9.182;2023-09-07T04:10:36;17.80;62.10
20066;DHT22;10193;48.884;9.182;2023-09-07T04:13:03;17.80;62.30
20066;DHT22;10193;48.884;9.182;2023-09-07T04:16:01;17.80;62.30
20066;DHT22;10193;48.884;9.182;2023-09-07T04:18:28;17.70;63.30
20066;DHT22;10193;48.884;9.182;2023-09-07T04:21:05;17.70;62.20
20066;DHT22;10193;48.884;9.182;2023-09-07T04:23:32;17.70;62.90
20066;DHT22;10193;48.884;9.182;2023-09-07T04:26:06;17.70;62.30
20066;DHT22;10193;48.884;9.182;2023-09-07T04:28:34;17.70;62.90
20066;DHT22;10193;48.884;9.182;2023-09-07T04:31:01;17.70;62.50
20066;DHT22;10193;48.884;9.182;2023-09-07T04:33:39;17.60;62.70
20066;DHT22;10193;48.884;9.182;2023-09-07T04:36:12;17.50;63.30
20066;DHT22;10193;48.884;9.182;2023-09-07T04:38:38;17.50;63.00
20066;DHT22;10193;48.884;9.182;2023-09-07T04:41:09;17.50;62.80
20066;DHT22;10193;48.884;9.182;2023-09-07T04:43:40;17.50;63.00
20066;DHT22;10193;48.884;9.182;2023-09-07T04:46:08;17.50;63.10
20066;DHT22;10193;48.884;9.182;2023-09-07T04:48:42;17.50;62.90
20066;DHT22;10193;48.884;9.182;2023-09-07T04:51:10;17.40;63.10
20066;DHT22;10193;48.884;9.182;2023-09-07T04:53:39;17.40;62.70
20066;DHT22;10193;48.884;9.182;2023-09-07T04:59:11;17.30;63.70
20066;DHT22;10193;48.884;9.182;2023-09-07T05:01:37;17.30;62.50
20066;DHT22;10193;48.884;9.182;2023-09-07T05:04:12;17.20;62.50
20066;DHT22;10193;48.884;9.182;2023-09-07T05:06:41;17.20;63.00
20066;DHT22;10193;48.884;9.182;2023-09-07T05:09:09;17.20;62.70
20066;DHT22;10193;48.884;9.182;2023-09-07T05:11:52;17.10;62.80
20066;DHT22;10193;48.884;9.182;2023-09-07T05:14:19;17.00;63.90
20066;DHT22;10193;48.884;9.182;2023-09-07T05:16:46;17.10;63.30
20066;DHT22;10193;48.884;9.182;2023-09-07T05:19:25;17.10;63.50
20066;DHT22;10193;48.884;9.182;2023-09-07T05:21:54;17.00;64.30
20066;DHT22;10193;48.884;9.182;2023-09-07T05:24:20;17.00;64.00
20066;DHT22;10193;48.884;9.182;2023-09-07T05:26:54;17.10;64.30
20066;DHT22;10193;48.884;9.182;2023-09-07T05:29:21;17.10;64.80
20066;DHT22;10193;48.884;9.182;2023-09-07T05:31:49;17.10;64.70
20066;DHT22;10193;48.884;9.182;2023-09-07T05:34:16;17.20;65.00
20066;DHT22;10193;48.884;9.182;2023-09-07T05:36:43;17.20;65.00
20066;DHT22;10193;48.884;9.182;2023-09-07T05:39:18;17.30;65.60
20066;DHT22;10193;48.884;9.182;2023-09-07T05:41:45;17.40;66.90
20066;DHT22;10193;48.884;9.182;2023-09-07T05:44:12;17.60;67.10
20066;DHT22;10193;48.884;9.182;2023-09-07T05:46:40;17.90;67.50
20066;DHT22;10193;48.884;9.182;2023-09-07T05:49:07;18.20;67.80
20066;DHT22;10193;48.884;9.182;2023-09-07T05:51:36;18.50;68.20
20066;DHT22;10193;48.884;9.182;2023-09-07T05:54:03;18.90;68.40
20066;DHT22;10193;48.884;9.182;2023-09-07T05:56:31;19.30;68.20
20066;DHT22;10193;48.884;9.182;2023-09-07T05:58:58;19.80;67.80
20066;DHT22;10193;48.884;9.182;2023-09-07T06:01:39;20.20;67.60
20066;DHT22;10193;48.884;9.182;2023-09-07T06:04:06;20.60;67.40
20066;DHT22;10193;48.884;9.182;2023-09-07T06:06:34;21.00;66.80
20066;DHT22;10193;48.884;9.182;2023-09-07T06:09:00;21.40;66.30
20066;DHT22;10193;48.884;9.182;2023-09-07T06:11:28;21.70;65.90
20066;DHT22;10193;48.884;9.182;2023-09-07T06:56:03;25.20;59.70
20066;DHT22;10193;48.884;9.182;2023-09-07T06:58:32;25.30;59.30
20066;DHT22;10193;48.884;9.182;2023-09-07T07:01:00;25.40;59.60
20066;DHT22;10193;48.884;9.182;2023-09-07T07:03:42;25.50;59.10
20066;DHT22;10193;48.884;9.182;2023-09-07T07:06:09;25.50;58.30
20066;DHT22;10193;48.884;9.182;2023-09-07T07:08:36;25.40;58.20
20066;DHT22;10193;48.884;9.182;2023-09-07T07:11:04;25.30;57.90
20066;DHT22;10193;48.884;9.182;2023-09-07T07:13:31;25.10;57.50
20066;DHT22;10193;48.884;9.182;2023-09-07T07:15:58;25.00;57.30
20066;DHT22;10193;48.884;9.182;2023-09-07T07:19:00;24.70;57.20
20066;DHT22;10193;48.884;9.182;2023-09-07T07:21:26;24.60;57.30
20066;DHT22;10193;48.884;9.182;2023-09-07T07:24:03;24.40;57.50
20066;DHT22;10193;48.884;9.182;2023-09-07T07:26:33;24.20;57.70
20066;DHT22;10193;48.884;9.182;2023-09-07T07:29:03;24.10;57.60
20066;DHT22;10193;48.884;9.182;2023-09-07T07:31:30;23.90;57.60
20066;DHT22;10193;48.884;9.182;2023-09-07T07:33:58;23.80;57.90
20066;DHT22;10193;48.884;9.182;2023-09-07T07:36:25;23.70;58.30
20066;DHT22;10193;48.884;9.182;2023-09-07T07:39:05;23.60;58.40
20066;DHT22;10193;48.884;9.182;2023-09-07T07:41:34;23.50;58.30
20066;DHT22;10193;48.884;9.182;2023-09-07T07:44:01;23.50;58.60
20066;DHT22;10193;48.884;9.182;2023-09-07T07:46:28;23.40;58.70
20066;DHT22;10193;48.884;9.182;2023-09-07T07:48:55;23.30;58.80
20066;DHT22;10193;48.884;9.182;2023-09-07T07:51:22;23.30;58.80
20066;DHT22;10193;48.884;9.182;2023-09-07T07:53:49;23.20;58.80
20066;DHT22;10193;48.884;9.182;2023-09-07T07:59:28;23.10;58.90
20066;DHT22;10193;48.884;9.182;2023-09-07T08:02:01;23.10;59.10
20066;DHT22;10193;48.884;9.182;2023-09-07T08:04:28;23.10;59.20
20066;DHT22;10193;48.884;9.182;2023-09-07T08:06:57;23.10;59.30
20066;DHT22;10193;48.884;9.182;2023-09-07T08:09:37;23.10;59.40
20066;DHT22;10193;48.884;9.182;2023-09-07T08:12:05;23.00;59.60
20066;DHT22;10193;48.884;9.182;2023-09-07T08:14:33;23.00;59.50
20066;DHT22;10193;48.884;9.182;2023-09-07T08:17:02;23.00;59.60
20066;DHT22;10193;48.884;9.182;2023-09-07T08:19:29;23.00;59.60
20066;DHT22;10193;48.884;9.182;2023-09-07T08:21:56;23.10;59.70
20066;DHT22;10193;48.884;9.182;2023-09-07T08:24:36;23.10;59.80
20066;DHT22;10193;48.884;9.182;2023-09-07T08:27:12;23.10;59.80
20066;DHT22;10193;48.884;9.182;2023-09-07T08:29:45;23.10;59.80
20066;DHT22;10193;48.884;9.182;2023-09-07T08:32:16;23.10;59.80
20066;DHT22;10193;48.884;9.182;2023-09-07T08:34:51;23.10;59.80
20066;DHT22;10193;48.884;9.182;2023-09-07T08:37:21;23.20;59.90
20066;DHT22;10193;48.884;9.182;2023-09-07T08:39:50;23.20;59.90
20066;DHT22;10193;48.884;9.182;2023-09-07T08:42:25;23.30;60.00
20066;DHT22;10193;48.884;9.182;2023-09-07T08:44:55;23.30;60.00
20066;DHT22;10193;48.884;9.182;2023-09-07T08:47:24;23.40;60.10
20066;DHT22;10193;48.884;9.182;2023-09-07T08:50:02;23.40;60.10
20066;DHT22;10193;48.884;9.182;2023-09-07T08:52:31;23.50;60.40
20066;DHT22;10193;48.884;9.182;2023-09-07T08:54:58;23.60;60.20
20066;DHT22;10193;48.884;9.182;2023-09-07T08:57:27;23.60;60.00
20066;DHT22;10193;48.884;9.182;2023-09-07T08:59:57;23.70;60.10
20066;DHT22;10193;48.884;9.182;2023-09-07T09:02:36;23.80;60.10
20066;DHT22;10193;48.884;9.182;2023-09-07T09:05:04;23.80;59.80
20066;DHT22;10193;48.884;9.182;2023-09-07T09:07:31;23.90;60.00
20066;DHT22;10193;48.884;9.182;2023-09-07T09:10:09;24.00;59.90
20066;DHT22;10193;48.884;9.182;2023-09-07T09:15:34;24.10;59.80
20066;DHT22;10193;48.884;9.182;2023-09-07T09:18:25;24.20;59.90
20066;DHT22;10193;48.884;9.182;2023-09-07T09:20:52;24.20;59.90
20066;DHT22;10193;48.884;9.182;2023-09-07T09:23:20;24.30;59.90
20066;DHT22;10193;48.884;9.182;2023-09-07T09:25:57;24.40;59.80
20066;DHT22;10193;48.884;9.182;2023-09-07T09:28:32;24.40;59.60
20066;DHT22;10193;48.884;9.182;2023-09-07T09:31:01;24.50;60.30
20066;DHT22;10193;48.884;9.182;2023-09-07T09:33:30;24.50;59.70
20066;DHT22;10193;48.884;9.182;2023-09-07T09:36:03;24.60;59.70
20066;DHT22;10193;48.884;9.182;2023-09-07T09:38:31;24.60;59.50
20066;DHT22;10193;48.884;9.182;2023-09-07T09:41:08;24.70;59.60
20066;DHT22;10193;48.884;9.182;2023-09-07T09:43:36;24.70;59.30
20066;DHT22;10193;48.884;9.182;2023-09-07T09:46:19;24.80;59.40
20066;DHT22;10193;48.884;9.182;2023-09-07T09:48:47;24.80;59.00
20066;DHT22;10193;48.884;9.182;2023-09-07T09:51:37;24.90;59.40
20066;DHT22;10193;48.884;9.182;2023-09-07T09:54:06;24.90;59.00
20066;DHT22;10193;48.884;9.182;2023-09-07T09:56:34;25.00;59.20
20066;DHT22;10193;48.884;9.182;2023-09-07T10:01:54;25.10;58.90
20066;DHT22;10193;48.884;9.182;2023-09-07T10:04:22;25.20;59.10
20066;DHT22;10193;48.884;9.182;2023-09-07T10:06:53;25.20;59.20
20066;DHT22;10193;48.884;9.182;2023-09-07T10:09:20;25.30;59.10
20066;DHT22;10193;48.884;9.182;2023-09-07T10:11:53;25.30;59.00
20066;DHT22;10193;48.884;9.182;2023-09-07T10:14:20;25.40;58.70
20066;DHT22;10193;48.884;9.182;2023-09-07T10:16:55;25.40;58.80
20066;DHT22;10193;48.884;9.182;2023-09-07T10:19:29;25.50;58.60
20066;DHT22;10193;48.884;9.182;2023-09-07T10:21:56;25.50;58.80
20066;DHT22;10193;48.884;9.182;2023-09-07T10:27:39;25.60;58.30
20066;DHT22;10193;48.884;9.182;2023-09-07T10:30:30;25.70;58.30
20066;DHT22;10193;48.884;9.182;2023-09-07T10:32:59;25.70;58.10
20066;DHT22;10193;48.884;9.182;2023-09-07T10:35:35;25.80;58.10
20066;DHT22;10193;48.884;9.182;2023-09-07T10:38:03;25.80;57.90
20066;DHT22;10193;48.884;9.182;2023-09-07T10:40:38;25.90;58.30
20066;DHT22;10193;48.884;9.182;2023-09-07T10:43:17;25.90;57.80
20066;DHT22;10193;48.884;9.182;2023-09-07T10:45:44;26.00;57.80
20066;DHT22;10193;48.884;9.182;2023-09-07T10:48:13;26.10;57.90
20066;DHT22;10193;48.884;9.182;2023-09-07T10:50:44;26.10;57.80
20066;DHT22;10193;48.884;9.182;2023-09-07T10:53:12;26.20;57.80
20066;DHT22;10193;48.884;9.182;2023-09-07T10:55:50;26.20;57.80
20066;DHT22;10193;48.884;9.182;2023-09-07T10:58:25;26.20;57.40
20066;DHT22;10193;48.884;9.182;2023-09-07T11:00:52;26.30;57.70
20066;DHT22;10193;48.884;9.182;2023-09-07T11:03:20;26.40;57.60
20066;DHT22;10193;48.884;9.182;2023-09-07T11:05:48;26.40;57.40
20066;DHT22;10193;48.884;9.182;2023-09-07T11:08:15;26.50;57.40
20066;DHT22;10193;48.884;9.182;2023-09-07T11:10:50;26.60;57.20
20066;DHT22;10193;48.884;9.182;2023-09-07T11:13:17;26.60;56.80
20066;DHT22;10193;48.884;9.182;2023-09-07T11:15:44;26.70;57.10
20066;DHT22;10193;48.884;9.182;2023-09-07T11:18:21;26.70;57.10
20066;DHT22;10193;48.884;9.182;2023-09-07T11:20:49;26.70;57.00
20066;DHT22;10193;48.884;9.182;2023-09-07T11:23:32;26.80;57.10
20066;DHT22;10193;48.884;9.182;2023-09-07T11:26:04;26.80;56.70
20066;DHT22;10193;48.884;9.182;2023-09-07T11:28:44;26.90;57.00
20066;DHT22;10193;48.884;9.182;2023-09-07T11:31:27;26.90;56.60
20066;DHT22;10193;48.884;9.182;2023-09-07T11:33:55;27.00;56.70
20066;DHT22;10193;48.884;9.182;2023-09-07T11:36:28;27.00;56.70
20066;DHT22;10193;48.884;9.182;2023-09-07T11:38:54;27.10;56.50
20066;DHT22;10193;48.884;9.182;2023-09-07T11:41:21;27.20;56.50
20066;DHT22;10193;48.884;9.182;2023-09-07T11:43:48;27.20;56.40
20066;DHT22;10193;48.884;9.182;2023-09-07T11:46:15;27.30;56.20
20066;DHT22;10193;48.884;9.182;2023-09-07T11:48:41;27.30;56.10
20066;DHT22;10193;48.884;9.182;2023-09-07T11:51:10;27.40;56.10
20066;DHT22;10193;48.884;9.182;2023-09-07T11:53:39;27.40;56.00
20066;DHT22;10193;48.884;9.182;2023-09-07T11:56:06;27.40;55.80
20066;DHT22;10193;48.884;9.182;2023-09-07T11:58:37;27.50;55.80
20066;DHT22;10193;48.884;9.182;2023-09-07T12:01:05;27.50;55.70
20066;DHT22;10193;48.884;9.182;2023-09-07T12:03:33;27.60;55.90
20066;DHT22;10193;48.884;9.182;2023-09-07T12:06:00;27.60;55.80
20066;DHT22;10193;48.884;9.182;2023-09-07T12:08:58;27.70;55.80
20066;DHT22;10193;48.884;9.182;2023-09-07T12:11:26;27.70;55.50
20066;DHT22;10193;48.884;9.182;2023-09-07T12:13:52;27.70;55.50
20066;DHT22;10193;48.884;9.182;2023-09-07T12:16:19;27.80;55.20
20066;DHT22;10193;48.884;9.182;2023-09-07T12:19:23;27.90;55.20
20066;DHT22;10193;48.884;9.182;2023-09-07T12:21:51;27.90;54.60
20066;DHT22;10193;48.884;9.182;2023-09-07T12:24:19;27.90;55.10
20066;DHT22;10193;48.884;9.182;2023-09-07T12:26:46;28.00;55.10
20066;DHT22;10193;48.884;9.182;2023-09-07T12:29:13;28.10;55.10
20066;DHT22;10193;48.884;9.182;2023-09-07T12:31:39;28.10;55.00
20066;DHT22;10193;48.884;9.182;2023-09-07T12:34:08;28.10;54.80
20066;DHT22;10193;48.884;9.182;2023-09-07T12:36:35;28.20;54.70
20066;DHT22;10193;48.884;9.182;2023-09-07T12:39:07;28.20;54.50
20066;DHT22;10193;48.884;9.182;2023-09-07T12:41:39;28.20;54.10
20066;DHT22;10193;48.884;9.182;2023-09-07T12:44:08;28.30;54.20
20066;DHT22;10193;48.884;9.182;2023-09-07T12:46:35;28.40;54.30
20066;DHT22;10193;48.884;9.182;2023-09-07T12:49:03;28.40;54.10
20066;DHT22;10193;48.884;9.182;2023-09-07T12:51:31;28.50;54.00
20066;DHT22;10193;48.884;9.182;2023-09-07T12:54:01;28.60;54.10
20066;DHT22;10193;48.884;9.182;2023-09-07T12:56:36;28.50;53.70
20066;DHT22;10193;48.884;9.182;2023-09-07T12:59:04;28.60;53.50
20066;DHT22;10193;48.884;9.182;2023-09-07T13:01:31;28.60;53.70
20066;DHT22;10193;48.884;9.182;2023-09-07T13:03:58;28.70;53.60
20066;DHT22;10193;48.884;9.182;2023-09-07T13:06:37;28.70;53.50
20066;DHT22;10193;48.884;9.182;2023-09-07T13:09:04;28.70;53.10
20066;DHT22;10193;48.884;9.182;2023-09-07T13:11:31;28.80;53.30
20066;DHT22;10193;48.884;9.182;2023-09-07T13:13:58;28.80;53.20
20066;DHT22;10193;48.884;9.182;2023-09-07T13:16:46;28.90;53.30
20066;DHT22;10193;48.884;9.182;2023-09-07T13:19:13;28.80;52.90
20066;DHT22;10193;48.884;9.182;2023-09-07T13:21:40;28.90;53.10
20066;DHT22;10193;48.884;9.182;2023-09-07T13:24:14;29.00;53.10
20066;DHT22;10193;48.884;9.182;2023-09-07T13:26:42;29.00;52.80
20066;DHT22;10193;48.884;9.182;2023-09-07T13:29:13;29.10;53.10
20066;DHT22;10193;48.884;9.182;2023-09-07T13:31:39;29.10;53.00
20066;DHT22;10193;48.884;9.182;2023-09-07T13:34:07;29.20;52.80
20066;DHT22;10193;48.884;9.182;2023-09-07T13:36:44;29.20;52.60
20066;DHT22;10193;48.884;9.182;2023-09-07T13:39:11;29.30;52.20
20066;DHT22;10193;48.884;9.182;2023-09-07T13:41:39;29.30;52.50
20066;DHT22;10193;48.884;9.182;2023-09-07T13:44:06;29.30;52.40
20066;DHT22;10193;48.884;9.182;2023-09-07T13:46:33;29.40;52.40
20066;DHT22;10193;48.884;9.182;2023-09-07T13:49:01;29.40;52.50
20066;DHT22;10193;48.884;9.182;2023-09-07T13:51:29;29.40;52.30
20066;DHT22;10193;48.884;9.182;2023-09-07T13:54:13;29.50;52.20
20066;DHT22;10193;48.884;9.182;2023-09-07T13:56:40;29.50;51.70
20066;DHT22;10193;48.884;9.182;2023-09-07T13:59:24;29.60;52.00
20066;DHT22;10193;48.884;9.182;2023-09-07T14:01:58;29.60;51.70
20066;DHT22;10193;48.884;9.182;2023-09-07T14:04:24;29.70;51.90
20066;DHT22;10193;48.884;9.182;2023-09-07T14:06:53;29.70;51.80
20066;DHT22;10193;48.884;9.182;2023-09-07T14:09:28;29.80;51.50
20066;DHT22;10193;48.884;9.182;2023-09-07T14:12:05;29.80;50.90
20066;DHT22;10193;48.884;9.182;2023-09-07T14:14:39;29.80;50.80
20066;DHT22;10193;48.884;9.182;2023-09-07T14:17:06;29.80;51.60
20066;DHT22;10193;48.884;9.182;2023-09-07T14:19:36;29.80;50.90
20066;DHT22;10193;48.884;9.182;2023-09-07T14:22:04;29.90;50.90
20066;DHT22;10193;48.884;9.182;2023-09-07T14:24:31;29.90;50.80
20066;DHT22;10193;48.884;9.182;2023-09-07T14:27:06;30.00;50.80
20066;DHT22;10193;48.884;9.182;2023-09-07T14:29:34;30.00;50.40
20066;DHT22;10193;48.884;9.182;2023-09-07T14:32:32;30.00;50.60
20066;DHT22;10193;48.884;9.182;2023-09-07T14:34:59;30.00;50.30
20066;DHT22;10193;48.884;9.182;2023-09-07T14:37:27;30.00;50.50
20066;DHT22;10193;48.884;9.182;2023-09-07T14:39:53;30.10;50.40
20066;DHT22;10193;48.884;9.182;2023-09-07T14:42:33;30.10;50.40
20066;DHT22;10193;48.884;9.182;2023-09-07T14:44:59;30.10;49.80
20066;DHT22;10193;48.884;9.182;2023-09-07T14:47:32;30.10;50.00
20066;DHT22;10193;48.884;9.182;2023-09-07T14:49:59;30.10;49.70
20066;DHT22;10193;48.884;9.182;2023-09-07T14:52:27;30.10;49.60
20066;DHT22;10193;48.884;9.182;2023-09-07T14:55:00;30.20;49.40
20066;DHT22;10193;48.884;9.182;2023-09-07T14:57:27;30.10;49.10
20066;DHT22;10193;48.884;9.182;2023-09-07T14:59:53;30.20;49.20
20066;DHT22;10193;48.884;9.182;2023-09-07T15:02:20;30.20;49.20
20066;DHT22;10193;48.884;9.182;2023-09-07T15:04:55;30.30;49.20
20066;DHT22;10193;48.884;9.182;2023-09-07T15:07:22;30.30;48.90
20066;DHT22;10193;48.884;9.182;2023-09-07T15:09:50;30.30;49.10
20066;DHT22;10193;48.884;9.182;2023-09-07T15:12:17;30.30;48.90
20066;DHT22;10193;48.884;9.182;2023-09-07T15:14:43;30.40;48.80
20066;DHT22;10193;48.884;9.182;2023-09-07T15:17:15;30.40;48.70
20066;DHT22;10193;48.884;9.182;2023-09-07T15:19:43;30.40;48.10
20066;DHT22;10193;48.884;9.182;2023-09-07T15:22:10;30.40;48.00
20066;DHT22;10193;48.884;9.182;2023-09-07T15:24:52;30.40;48.10
20066;DHT22;10193;48.884;9.182;2023-09-07T15:27:21;30.40;47.60
20066;DHT22;10193;48.884;9.182;2023-09-07T15:29:49;30.50;48.10
20066;DHT22;10193;48.884;9.182;2023-09-07T15:32:16;30.50;47.70
20066;DHT22;10193;48.884;9.182;2023-09-07T15:34:55;30.50;47.60
20066;DHT22;10193;48.884;9.182;2023-09-07T15:37:22;30.50;47.10
20066;DHT22;10193;48.884;9.182;2023-09-07T15:39:49;30.50;47.40
20066;DHT22;10193;48.884;9.182;2023-09-07T15:42:17;30.50;47.20
20066;DHT22;10193;48.884;9.182;2023-09-07T15:44:47;30.50;47.10
20066;DHT22;10193;48.884;9.182;2023-09-07T15:47:14;30.50;47.00
20066;DHT22;10193;48.884;9.182;2023-09-07T15:49:47;30.50;47.00
20066;DHT22;10193;48.884;9.182;2023-09-07T15:52:17;30.40;46.60
20066;DHT22;10193;48.884;9.182;2023-09-07T15:54:45;30.40;46.80
20066;DHT22;10193;48.884;9.182;2023-09-07T15:57:11;30.40;46.70
20066;DHT22;10193;48.884;9.182;2023-09-07T15:59:46;30.40;46.50
20066;DHT22;10193;48.884;9.182;2023-09-07T16:02:28;30.40;46.10
20066;DHT22;10193;48.884;9.182;2023-09-07T16:04:54;30.30;45.70
20066;DHT22;10193;48.884;9.182;2023-09-07T16:07:21;30.40;46.20
20066;DHT22;10193;48.884;9.182;2023-09-07T16:10:07;30.40;46.20
20066;DHT22;10193;48.884;9.182;2023-09-07T16:12:35;30.30;45.80
20066;DHT22;10193;48.884;9.182;2023-09-07T16:15:04;30.40;46.20
20066;DHT22;10193;48.884;9.182;2023-09-07T16:17:37;30.30;46.20
20066;DHT22;10193;48.884;9.182;2023-09-07T16:20:05;30.30;45.90
20066;DHT22;10193;48.884;9.182;2023-09-07T16:22:34;30.30;46.10
20066;DHT22;10193;48.884;9.182;2023-09-07T16:25:04;30.20;46.00
20066;DHT22;10193;48.884;9.182;2023-09-07T16:27:31;30.10;46.10
20066;DHT22;10193;48.884;9.182;2023-09-07T16:30:22;30.20;46.10
20066;DHT22;10193;48.884;9.182;2023-09-07T16:32:48;30.10;45.80
20066;DHT22;10193;48.884;9.182;2023-09-07T16:35:16;30.10;46.00
20066;DHT22;10193;48.884;9.182;2023-09-07T16:37:59;30.00;45.90
20066;DHT22;10193;48.884;9.182;2023-09-07T16:40:44;30.00;45.50
20066;DHT22;10193;48.884;9.182;2023-09-07T16:43:12;29.90;45.40
20066;DHT22;10193;48.884;9.182;2023-09-07T16:45:41;29.90;45.60
20066;DHT22;10193;48.884;9.182;2023-09-07T16:48:26;29.90;45.60
20066;DHT22;10193;48.884;9.182;2023-09-07T16:51:07;29.80;45.30
20066;DHT22;10193;48.884;9.182;2023-09-07T16:53:35;29.80;45.10
20066;DHT22;10193;48.884;9.182;2023-09-07T16:56:02;29.80;45.40